sensor_id;sensor_type;location;lat;lon;timestamp;P1;durP1;ratioP1;P2;durP2;ratioP2
14139;SDS011;7150;53.514;9.988;2023-07-31T00:00:21;4.13;;;1.97;;
14139;SDS011;7150;53.514;9.988;2023-07-31T00:02:47;9.83;;;2.40;;
14139;SDS011;7150;53.514;9.988;2023-07-31T00:05:12;6.47;;;2.57;;
14139;SDS011;7150;53.514;9.988;2023-07-31T00:07:38;6.03;;;2.27;;
14139;SDS011;7150;53.514;9.988;2023-07-31T00:10:03;8.43;;;2.10;;
14139;SDS011;7150;53.514;9.988;2023-07-31T00:12:29;5.23;;;1.93;;
14139;SDS011;7150;53.514;9.988;2023-07-31T00:14:54;6.33;;;2.63;;
14139;SDS011;7150;53.514;9.988;2023-07-31T00:17:20;8.10;;;2.43;;
14139;SDS011;7150;53.514;9.988;2023-07-31T00:19:45;10.37;;;2.70;;
14139;SDS011;7150;53.514;9.988;2023-07-31T00:22:11;9.43;;;2.10;;
14139;SDS011;7150;53.514;9.988;2023-07-31T00:24:37;7.87;;;2.33;;
14139;SDS011;7150;53.514;9.988;2023-07-31T00:27:02;14.97;;;2.70;;
14139;SDS011;7150;53.514;9.988;2023-07-31T00:29:28;8.30;;;2.47;;
14139;SDS011;7150;53.514;9.988;2023-07-31T00:31:53;3.30;;;1.97;;
14139;SDS011;7150;53.514;9.988;2023-07-31T00:34:19;5.07;;;1.93;;
14139;SDS011;7150;53.514;9.988;2023-07-31T00:36:44;7.77;;;2.43;;
14139;SDS011;7150;53.514;9.988;2023-07-31T00:39:10;5.73;;;2.27;;
14139;SDS011;7150;53.514;9.988;2023-07-31T00:41:35;4.67;;;2.17;;
14139;SDS011;7150;53.514;9.988;2023-07-31T00:44:01;12.00;;;2.37;;
14139;SDS011;7150;53.514;9.988;2023-07-31T00:46:26;8.73;;;2.60;;
14139;SDS011;7150;53.514;9.988;2023-07-31T00:48:52;5.77;;;2.40;;
14139;SDS011;7150;53.514;9.988;2023-07-31T00:51:17;7.53;;;2.30;;
14139;SDS011;7150;53.514;9.988;2023-07-31T00:53:43;5.03;;;2.00;;
14139;SDS011;7150;53.514;9.988;2023-07-31T00:56:09;6.17;;;2.70;;
14139;SDS011;7150;53.514;9.988;2023-07-31T00:58:36;4.40;;;2.37;;
14139;SDS011;7150;53.514;9.988;2023-07-31T01:01:01;5.70;;;2.13;;
14139;SDS011;7150;53.514;9.988;2023-07-31T01:03:27;6.50;;;2.27;;
14139;SDS011;7150;53.514;9.988;2023-07-31T01:05:56;8.97;;;2.30;;
14139;SDS011;7150;53.514;9.988;2023-07-31T01:11:46;5.77;;;2.20;;
14139;SDS011;7150;53.514;9.988;2023-07-31T01:13:54;7.97;;;2.20;;
14139;SDS011;7150;53.514;9.988;2023-07-31T01:16:20;7.80;;;2.70;;
14139;SDS011;7150;53.514;9.988;2023-07-31T01:18:46;5.47;;;2.57;;
14139;SDS011;7150;53.514;9.988;2023-07-31T01:26:47;10.07;;;2.67;;
14139;SDS011;7150;53.514;9.988;2023-07-31T01:29:25;7.07;;;2.57;;
14139;SDS011;7150;53.514;9.988;2023-07-31T01:32:01;8.80;;;2.30;;
14139;SDS011;7150;53.514;9.988;2023-07-31T01:34:28;5.97;;;2.50;;
14139;SDS011;7150;53.514;9.988;2023-07-31T01:36:56;6.40;;;3.03;;
14139;SDS011;7150;53.514;9.988;2023-07-31T01:39:23;3.83;;;2.00;;
14139;SDS011;7150;53.514;9.988;2023-07-31T01:41:48;8.07;;;2.50;;
14139;SDS011;7150;53.514;9.988;2023-07-31T01:44:14;5.63;;;2.33;;
14139;SDS011;7150;53.514;9.988;2023-07-31T01:46:39;3.83;;;2.23;;
14139;SDS011;7150;53.514;9.988;2023-07-31T01:49:05;5.57;;;2.53;;
14139;SDS011;7150;53.514;9.988;2023-07-31T01:51:31;8.87;;;3.00;;
14139;SDS011;7150;53.514;9.988;2023-07-31T01:53:59;5.27;;;2.10;;
14139;SDS011;7150;53.514;9.988;2023-07-31T01:56:25;8.60;;;2.40;;
14139;SDS011;7150;53.514;9.988;2023-07-31T01:58:50;5.57;;;2.13;;
14139;SDS011;7150;53.514;9.988;2023-07-31T02:01:16;8.20;;;2.60;;
14139;SDS011;7150;53.514;9.988;2023-07-31T02:03:41;5.50;;;2.77;;
14139;SDS011;7150;53.514;9.988;2023-07-31T02:06:07;5.73;;;2.27;;
14139;SDS011;7150;53.514;9.988;2023-07-31T02:08:32;7.00;;;2.17;;
14139;SDS011;7150;53.514;9.988;2023-07-31T02:10:58;4.60;;;2.50;;
14139;SDS011;7150;53.514;9.988;2023-07-31T02:13:23;4.70;;;2.43;;
14139;SDS011;7150;53.514;9.988;2023-07-31T02:15:49;5.10;;;2.40;;
14139;SDS011;7150;53.514;9.988;2023-07-31T02:18:15;7.17;;;2.30;;
14139;SDS011;7150;53.514;9.988;2023-07-31T02:20:41;6.37;;;2.40;;
14139;SDS011;7150;53.514;9.988;2023-07-31T02:23:06;5.17;;;2.23;;
14139;SDS011;7150;53.514;9.988;2023-07-31T02:25:32;6.20;;;2.67;;
14139;SDS011;7150;53.514;9.988;2023-07-31T02:27:57;6.13;;;2.77;;
14139;SDS011;7150;53.514;9.988;2023-07-31T02:30:23;5.40;;;2.67;;
14139;SDS011;7150;53.514;9.988;2023-07-31T02:32:48;8.43;;;2.70;;
14139;SDS011;7150;53.514;9.988;2023-07-31T02:35:14;6.60;;;2.90;;
14139;SDS011;7150;53.514;9.988;2023-07-31T02:37:40;4.97;;;2.40;;
14139;SDS011;7150;53.514;9.988;2023-07-31T02:40:09;4.33;;;2.17;;
14139;SDS011;7150;53.514;9.988;2023-07-31T02:42:35;7.73;;;2.77;;
14139;SDS011;7150;53.514;9.988;2023-07-31T02:45:00;7.90;;;2.63;;
14139;SDS011;7150;53.514;9.988;2023-07-31T02:47:25;5.50;;;2.33;;
14139;SDS011;7150;53.514;9.988;2023-07-31T02:49:51;4.90;;;2.67;;
14139;SDS011;7150;53.514;9.988;2023-07-31T02:52:16;5.37;;;2.50;;
14139;SDS011;7150;53.514;9.988;2023-07-31T02:54:42;5.90;;;2.60;;
14139;SDS011;7150;53.514;9.988;2023-07-31T02:57:07;4.27;;;2.47;;
14139;SDS011;7150;53.514;9.988;2023-07-31T02:59:33;5.83;;;2.40;;
14139;SDS011;7150;53.514;9.988;2023-07-31T03:01:58;5.33;;;2.30;;
14139;SDS011;7150;53.514;9.988;2023-07-31T03:04:24;5.23;;;2.20;;
14139;SDS011;7150;53.514;9.988;2023-07-31T03:06:49;6.60;;;2.80;;
14139;SDS011;7150;53.514;9.988;2023-07-31T03:09:15;7.53;;;2.57;;
14139;SDS011;7150;53.514;9.988;2023-07-31T03:11:40;5.93;;;2.43;;
14139;SDS011;7150;53.514;9.988;2023-07-31T03:14:06;4.63;;;2.40;;
14139;SDS011;7150;53.514;9.988;2023-07-31T03:16:31;2.97;;;2.10;;
14139;SDS011;7150;53.514;9.988;2023-07-31T03:18:56;4.13;;;2.07;;
14139;SDS011;7150;53.514;9.988;2023-07-31T03:21:22;6.90;;;2.17;;
14139;SDS011;7150;53.514;9.988;2023-07-31T03:23:48;3.20;;;1.93;;
14139;SDS011;7150;53.514;9.988;2023-07-31T03:26:13;3.83;;;2.20;;
14139;SDS011;7150;53.514;9.988;2023-07-31T03:28:39;5.63;;;2.53;;
14139;SDS011;7150;53.514;9.988;2023-07-31T03:31:04;8.00;;;2.60;;
14139;SDS011;7150;53.514;9.988;2023-07-31T03:33:30;4.07;;;2.27;;
14139;SDS011;7150;53.514;9.988;2023-07-31T03:35:55;6.37;;;2.60;;
14139;SDS011;7150;53.514;9.988;2023-07-31T03:38:21;3.40;;;2.10;;
14139;SDS011;7150;53.514;9.988;2023-07-31T03:40:47;5.63;;;2.60;;
14139;SDS011;7150;53.514;9.988;2023-07-31T03:43:13;5.57;;;2.40;;
14139;SDS011;7150;53.514;9.988;2023-07-31T03:45:40;3.73;;;2.50;;
14139;SDS011;7150;53.514;9.988;2023-07-31T03:48:05;3.33;;;2.40;;
14139;SDS011;7150;53.514;9.988;2023-07-31T03:50:32;4.53;;;2.27;;
14139;SDS011;7150;53.514;9.988;2023-07-31T03:52:58;2.93;;;2.10;;
14139;SDS011;7150;53.514;9.988;2023-07-31T03:55:23;5.97;;;2.50;;
14139;SDS011;7150;53.514;9.988;2023-07-31T03:57:49;7.37;;;2.40;;
14139;SDS011;7150;53.514;9.988;2023-07-31T04:00:14;3.03;;;2.10;;
14139;SDS011;7150;53.514;9.988;2023-07-31T04:02:40;2.50;;;1.97;;
14139;SDS011;7150;53.514;9.988;2023-07-31T04:05:06;5.80;;;2.13;;
14139;SDS011;7150;53.514;9.988;2023-07-31T04:07:32;3.60;;;2.13;;
14139;SDS011;7150;53.514;9.988;2023-07-31T04:09:57;4.73;;;2.23;;
14139;SDS011;7150;53.514;9.988;2023-07-31T04:12:25;2.83;;;1.90;;
14139;SDS011;7150;53.514;9.988;2023-07-31T04:14:50;2.00;;;1.80;;
14139;SDS011;7150;53.514;9.988;2023-07-31T04:17:17;3.73;;;1.90;;
14139;SDS011;7150;53.514;9.988;2023-07-31T04:19:42;4.90;;;2.10;;
14139;SDS011;7150;53.514;9.988;2023-07-31T04:22:08;4.40;;;2.23;;
14139;SDS011;7150;53.514;9.988;2023-07-31T04:24:33;5.70;;;1.93;;
14139;SDS011;7150;53.514;9.988;2023-07-31T04:26:59;2.27;;;1.70;;
14139;SDS011;7150;53.514;9.988;2023-07-31T04:29:24;5.90;;;2.23;;
14139;SDS011;7150;53.514;9.988;2023-07-31T04:31:50;4.17;;;1.93;;
14139;SDS011;7150;53.514;9.988;2023-07-31T04:34:15;2.60;;;1.90;;
14139;SDS011;7150;53.514;9.988;2023-07-31T04:36:41;2.47;;;1.70;;
14139;SDS011;7150;53.514;9.988;2023-07-31T04:39:06;3.83;;;1.90;;
14139;SDS011;7150;53.514;9.988;2023-07-31T04:41:32;2.03;;;1.83;;
14139;SDS011;7150;53.514;9.988;2023-07-31T04:43:57;3.03;;;1.93;;
14139;SDS011;7150;53.514;9.988;2023-07-31T04:46:23;2.37;;;1.80;;
14139;SDS011;7150;53.514;9.988;2023-07-31T04:48:48;4.10;;;2.10;;
14139;SDS011;7150;53.514;9.988;2023-07-31T04:51:13;2.90;;;2.20;;
14139;SDS011;7150;53.514;9.988;2023-07-31T04:53:39;2.47;;;1.77;;
14139;SDS011;7150;53.514;9.988;2023-07-31T04:56:05;4.87;;;2.17;;
14139;SDS011;7150;53.514;9.988;2023-07-31T04:58:30;2.23;;;1.90;;
14139;SDS011;7150;53.514;9.988;2023-07-31T05:00:56;3.30;;;1.90;;
14139;SDS011;7150;53.514;9.988;2023-07-31T05:03:21;4.03;;;1.87;;
14139;SDS011;7150;53.514;9.988;2023-07-31T05:05:47;2.93;;;1.90;;
14139;SDS011;7150;53.514;9.988;2023-07-31T05:08:12;5.40;;;2.10;;
14139;SDS011;7150;53.514;9.988;2023-07-31T05:10:38;4.43;;;2.30;;
14139;SDS011;7150;53.514;9.988;2023-07-31T05:13:03;2.17;;;1.63;;
14139;SDS011;7150;53.514;9.988;2023-07-31T05:15:29;5.10;;;2.00;;
14139;SDS011;7150;53.514;9.988;2023-07-31T05:17:54;2.57;;;1.80;;
14139;SDS011;7150;53.514;9.988;2023-07-31T05:20:20;5.30;;;2.10;;
14139;SDS011;7150;53.514;9.988;2023-07-31T05:22:46;3.73;;;2.20;;
14139;SDS011;7150;53.514;9.988;2023-07-31T05:25:11;3.73;;;2.37;;
14139;SDS011;7150;53.514;9.988;2023-07-31T05:27:37;2.37;;;1.87;;
14139;SDS011;7150;53.514;9.988;2023-07-31T05:30:03;2.40;;;2.13;;
14139;SDS011;7150;53.514;9.988;2023-07-31T05:32:29;3.47;;;1.87;;
14139;SDS011;7150;53.514;9.988;2023-07-31T05:34:54;3.23;;;1.90;;
14139;SDS011;7150;53.514;9.988;2023-07-31T05:37:20;2.63;;;1.70;;
14139;SDS011;7150;53.514;9.988;2023-07-31T05:39:46;3.03;;;1.83;;
14139;SDS011;7150;53.514;9.988;2023-07-31T05:42:11;2.50;;;2.20;;
14139;SDS011;7150;53.514;9.988;2023-07-31T05:44:37;2.17;;;2.00;;
14139;SDS011;7150;53.514;9.988;2023-07-31T05:47:02;2.70;;;2.03;;
14139;SDS011;7150;53.514;9.988;2023-07-31T05:49:28;2.50;;;2.27;;
14139;SDS011;7150;53.514;9.988;2023-07-31T05:51:53;3.93;;;2.40;;
14139;SDS011;7150;53.514;9.988;2023-07-31T05:54:19;3.20;;;2.27;;
14139;SDS011;7150;53.514;9.988;2023-07-31T05:56:44;2.83;;;2.43;;
14139;SDS011;7150;53.514;9.988;2023-07-31T05:59:11;4.87;;;2.70;;
14139;SDS011;7150;53.514;9.988;2023-07-31T06:01:38;2.63;;;2.17;;
14139;SDS011;7150;53.514;9.988;2023-07-31T06:04:04;2.30;;;2.10;;
14139;SDS011;7150;53.514;9.988;2023-07-31T06:06:29;5.00;;;1.97;;
14139;SDS011;7150;53.514;9.988;2023-07-31T06:08:55;4.33;;;2.30;;
14139;SDS011;7150;53.514;9.988;2023-07-31T06:11:20;2.57;;;2.10;;
14139;SDS011;7150;53.514;9.988;2023-07-31T06:13:46;2.30;;;2.10;;
14139;SDS011;7150;53.514;9.988;2023-07-31T06:16:14;3.23;;;2.40;;
14139;SDS011;7150;53.514;9.988;2023-07-31T06:18:40;2.47;;;1.93;;
14139;SDS011;7150;53.514;9.988;2023-07-31T06:21:06;2.53;;;1.83;;
14139;SDS011;7150;53.514;9.988;2023-07-31T06:23:32;6.00;;;1.90;;
14139;SDS011;7150;53.514;9.988;2023-07-31T06:25:57;3.83;;;2.47;;
14139;SDS011;7150;53.514;9.988;2023-07-31T06:28:29;5.47;;;1.90;;
14139;SDS011;7150;53.514;9.988;2023-07-31T06:30:56;3.03;;;2.40;;
14139;SDS011;7150;53.514;9.988;2023-07-31T06:33:21;2.00;;;1.80;;
14139;SDS011;7150;53.514;9.988;2023-07-31T06:35:47;3.90;;;2.20;;
14139;SDS011;7150;53.514;9.988;2023-07-31T06:38:12;3.13;;;2.13;;
14139;SDS011;7150;53.514;9.988;2023-07-31T06:40:38;4.03;;;2.30;;
14139;SDS011;7150;53.514;9.988;2023-07-31T06:43:03;2.87;;;2.03;;
14139;SDS011;7150;53.514;9.988;2023-07-31T06:45:33;2.63;;;1.97;;
14139;SDS011;7150;53.514;9.988;2023-07-31T06:47:59;2.23;;;2.00;;
14139;SDS011;7150;53.514;9.988;2023-07-31T06:50:26;2.23;;;1.97;;
14139;SDS011;7150;53.514;9.988;2023-07-31T06:52:53;2.73;;;2.07;;
14139;SDS011;7150;53.514;9.988;2023-07-31T06:55:20;3.40;;;2.10;;
14139;SDS011;7150;53.514;9.988;2023-07-31T06:57:47;2.63;;;2.00;;
14139;SDS011;7150;53.514;9.988;2023-07-31T07:00:13;1.70;;;1.57;;
14139;SDS011;7150;53.514;9.988;2023-07-31T07:02:39;2.03;;;1.83;;
14139;SDS011;7150;53.514;9.988;2023-07-31T07:05:04;1.90;;;1.63;;
14139;SDS011;7150;53.514;9.988;2023-07-31T07:07:31;2.00;;;1.80;;
14139;SDS011;7150;53.514;9.988;2023-07-31T07:09:57;3.03;;;2.27;;
14139;SDS011;7150;53.514;9.988;2023-07-31T07:12:24;2.27;;;2.00;;
14139;SDS011;7150;53.514;9.988;2023-07-31T07:14:50;1.73;;;1.63;;
14139;SDS011;7150;53.514;9.988;2023-07-31T07:17:17;2.13;;;2.00;;
14139;SDS011;7150;53.514;9.988;2023-07-31T07:19:43;3.10;;;1.80;;
14139;SDS011;7150;53.514;9.988;2023-07-31T07:22:10;2.40;;;1.47;;
14139;SDS011;7150;53.514;9.988;2023-07-31T07:24:36;3.27;;;2.27;;
14139;SDS011;7150;53.514;9.988;2023-07-31T07:27:01;2.93;;;2.27;;
14139;SDS011;7150;53.514;9.988;2023-07-31T07:29:27;1.70;;;1.60;;
14139;SDS011;7150;53.514;9.988;2023-07-31T07:31:52;5.80;;;2.20;;
14139;SDS011;7150;53.514;9.988;2023-07-31T07:34:18;2.73;;;2.30;;
14139;SDS011;7150;53.514;9.988;2023-07-31T07:36:43;3.90;;;2.10;;
14139;SDS011;7150;53.514;9.988;2023-07-31T07:39:10;2.33;;;1.90;;
14139;SDS011;7150;53.514;9.988;2023-07-31T07:41:35;2.53;;;2.00;;
14139;SDS011;7150;53.514;9.988;2023-07-31T07:44:01;3.93;;;2.10;;
14139;SDS011;7150;53.514;9.988;2023-07-31T07:46:26;2.70;;;1.90;;
14139;SDS011;7150;53.514;9.988;2023-07-31T07:48:53;3.50;;;2.07;;
14139;SDS011;7150;53.514;9.988;2023-07-31T07:51:18;3.27;;;2.00;;
14139;SDS011;7150;53.514;9.988;2023-07-31T07:53:43;2.13;;;1.93;;
14139;SDS011;7150;53.514;9.988;2023-07-31T07:56:09;2.93;;;1.83;;
14139;SDS011;7150;53.514;9.988;2023-07-31T07:58:34;2.37;;;2.17;;
14139;SDS011;7150;53.514;9.988;2023-07-31T08:01:00;2.43;;;2.17;;
14139;SDS011;7150;53.514;9.988;2023-07-31T08:03:25;2.47;;;2.10;;
14139;SDS011;7150;53.514;9.988;2023-07-31T08:05:51;3.63;;;2.20;;
14139;SDS011;7150;53.514;9.988;2023-07-31T08:08:16;1.77;;;1.60;;
14139;SDS011;7150;53.514;9.988;2023-07-31T08:10:42;2.77;;;1.50;;
14139;SDS011;7150;53.514;9.988;2023-07-31T08:13:09;9.43;;;2.47;;
14139;SDS011;7150;53.514;9.988;2023-07-31T08:15:38;7.43;;;2.40;;
14139;SDS011;7150;53.514;9.988;2023-07-31T08:18:06;8.60;;;2.77;;
14139;SDS011;7150;53.514;9.988;2023-07-31T08:20:32;6.30;;;2.63;;
14139;SDS011;7150;53.514;9.988;2023-07-31T08:22:57;5.23;;;2.47;;
14139;SDS011;7150;53.514;9.988;2023-07-31T08:25:23;5.17;;;1.63;;
14139;SDS011;7150;53.514;9.988;2023-07-31T08:27:48;2.03;;;1.50;;
14139;SDS011;7150;53.514;9.988;2023-07-31T08:30:14;1.60;;;1.50;;
14139;SDS011;7150;53.514;9.988;2023-07-31T08:32:39;3.03;;;1.30;;
14139;SDS011;7150;53.514;9.988;2023-07-31T08:35:05;1.37;;;1.13;;
14139;SDS011;7150;53.514;9.988;2023-07-31T08:37:30;1.60;;;1.50;;
14139;SDS011;7150;53.514;9.988;2023-07-31T08:39:56;2.20;;;1.67;;
14139;SDS011;7150;53.514;9.988;2023-07-31T08:42:21;1.33;;;1.20;;
14139;SDS011;7150;53.514;9.988;2023-07-31T08:44:47;1.53;;;1.43;;
14139;SDS011;7150;53.514;9.988;2023-07-31T08:47:13;2.63;;;1.50;;
14139;SDS011;7150;53.514;9.988;2023-07-31T08:49:40;1.80;;;1.57;;
14139;SDS011;7150;53.514;9.988;2023-07-31T08:52:08;1.40;;;1.20;;
14139;SDS011;7150;53.514;9.988;2023-07-31T08:54:33;1.23;;;1.13;;
14139;SDS011;7150;53.514;9.988;2023-07-31T08:56:59;5.70;;;1.43;;
14139;SDS011;7150;53.514;9.988;2023-07-31T08:59:26;1.87;;;1.20;;
14139;SDS011;7150;53.514;9.988;2023-07-31T09:01:55;2.80;;;1.57;;
14139;SDS011;7150;53.514;9.988;2023-07-31T09:04:22;1.20;;;1.10;;
14139;SDS011;7150;53.514;9.988;2023-07-31T09:06:49;1.43;;;1.23;;
14139;SDS011;7150;53.514;9.988;2023-07-31T09:09:19;1.60;;;1.40;;
14139;SDS011;7150;53.514;9.988;2023-07-31T09:11:45;1.80;;;1.30;;
14139;SDS011;7150;53.514;9.988;2023-07-31T09:14:11;1.30;;;1.20;;
14139;SDS011;7150;53.514;9.988;2023-07-31T09:16:52;2.80;;;1.20;;
14139;SDS011;7150;53.514;9.988;2023-07-31T09:19:37;1.30;;;1.20;;
14139;SDS011;7150;53.514;9.988;2023-07-31T09:22:03;1.80;;;1.33;;
14139;SDS011;7150;53.514;9.988;2023-07-31T09:24:32;1.30;;;1.20;;
14139;SDS011;7150;53.514;9.988;2023-07-31T09:26:59;6.17;;;2.27;;
14139;SDS011;7150;53.514;9.988;2023-07-31T09:29:26;5.17;;;1.97;;
14139;SDS011;7150;53.514;9.988;2023-07-31T09:31:53;1.50;;;1.23;;
14139;SDS011;7150;53.514;9.988;2023-07-31T09:34:19;2.57;;;1.63;;
14139;SDS011;7150;53.514;9.988;2023-07-31T09:36:52;2.53;;;1.20;;
14139;SDS011;7150;53.514;9.988;2023-07-31T09:39:18;1.33;;;0.87;;
14139;SDS011;7150;53.514;9.988;2023-07-31T09:41:46;2.37;;;1.23;;
14139;SDS011;7150;53.514;9.988;2023-07-31T09:44:12;1.00;;;0.90;;
14139;SDS011;7150;53.514;9.988;2023-07-31T09:46:38;1.07;;;0.97;;
14139;SDS011;7150;53.514;9.988;2023-07-31T09:49:05;1.20;;;1.00;;
14139;SDS011;7150;53.514;9.988;2023-07-31T09:51:38;1.80;;;1.00;;
14139;SDS011;7150;53.514;9.988;2023-07-31T09:54:09;1.83;;;1.13;;
14139;SDS011;7150;53.514;9.988;2023-07-31T09:56:38;2.57;;;1.30;;
14139;SDS011;7150;53.514;9.988;2023-07-31T09:59:14;2.83;;;1.40;;
14139;SDS011;7150;53.514;9.988;2023-07-31T10:01:41;2.00;;;1.03;;
14139;SDS011;7150;53.514;9.988;2023-07-31T10:04:08;2.00;;;0.93;;
14139;SDS011;7150;53.514;9.988;2023-07-31T10:06:35;2.77;;;1.50;;
14139;SDS011;7150;53.514;9.988;2023-07-31T10:09:02;1.50;;;1.30;;
14139;SDS011;7150;53.514;9.988;2023-07-31T10:11:30;2.30;;;0.90;;
14139;SDS011;7150;53.514;9.988;2023-07-31T10:13:58;3.93;;;1.10;;
14139;SDS011;7150;53.514;9.988;2023-07-31T10:16:24;1.63;;;1.00;;
14139;SDS011;7150;53.514;9.988;2023-07-31T10:18:50;1.33;;;0.90;;
14139;SDS011;7150;53.514;9.988;2023-07-31T10:21:16;2.70;;;0.83;;
14139;SDS011;7150;53.514;9.988;2023-07-31T10:23:42;0.87;;;0.80;;
14139;SDS011;7150;53.514;9.988;2023-07-31T10:26:09;2.83;;;1.07;;
14139;SDS011;7150;53.514;9.988;2023-07-31T10:28:36;0.90;;;0.70;;
14139;SDS011;7150;53.514;9.988;2023-07-31T10:31:04;0.63;;;0.60;;
14139;SDS011;7150;53.514;9.988;2023-07-31T10:33:29;0.87;;;0.70;;
14139;SDS011;7150;53.514;9.988;2023-07-31T10:36:16;0.90;;;0.80;;
14139;SDS011;7150;53.514;9.988;2023-07-31T10:38:43;1.77;;;0.80;;
14139;SDS011;7150;53.514;9.988;2023-07-31T10:41:09;1.60;;;1.10;;
14139;SDS011;7150;53.514;9.988;2023-07-31T10:43:35;1.97;;;1.10;;
14139;SDS011;7150;53.514;9.988;2023-07-31T10:46:07;1.80;;;1.40;;
14139;SDS011;7150;53.514;9.988;2023-07-31T10:48:34;2.50;;;1.60;;
14139;SDS011;7150;53.514;9.988;2023-07-31T10:51:02;2.40;;;1.53;;
14139;SDS011;7150;53.514;9.988;2023-07-31T10:53:42;2.70;;;1.83;;
14139;SDS011;7150;53.514;9.988;2023-07-31T10:56:08;4.17;;;2.03;;
14139;SDS011;7150;53.514;9.988;2023-07-31T10:58:37;5.50;;;2.53;;
14139;SDS011;7150;53.514;9.988;2023-07-31T11:01:03;5.50;;;2.73;;
14139;SDS011;7150;53.514;9.988;2023-07-31T11:03:46;9.80;;;4.37;;
14139;SDS011;7150;53.514;9.988;2023-07-31T11:06:14;10.93;;;5.57;;
14139;SDS011;7150;53.514;9.988;2023-07-31T11:08:47;15.07;;;6.97;;
14139;SDS011;7150;53.514;9.988;2023-07-31T11:11:15;9.70;;;6.20;;
14139;SDS011;7150;53.514;9.988;2023-07-31T11:13:43;14.77;;;7.00;;
14139;SDS011;7150;53.514;9.988;2023-07-31T11:16:10;21.73;;;7.20;;
14139;SDS011;7150;53.514;9.988;2023-07-31T11:18:38;10.00;;;6.03;;
14139;SDS011;7150;53.514;9.988;2023-07-31T11:21:08;11.67;;;6.20;;
14139;SDS011;7150;53.514;9.988;2023-07-31T11:23:37;11.53;;;5.93;;
14139;SDS011;7150;53.514;9.988;2023-07-31T11:26:04;10.80;;;5.40;;
14139;SDS011;7150;53.514;9.988;2023-07-31T11:28:31;13.30;;;4.93;;
14139;SDS011;7150;53.514;9.988;2023-07-31T11:30:58;6.57;;;3.67;;
14139;SDS011;7150;53.514;9.988;2023-07-31T11:33:24;7.13;;;3.77;;
14139;SDS011;7150;53.514;9.988;2023-07-31T11:35:50;7.53;;;4.33;;
14139;SDS011;7150;53.514;9.988;2023-07-31T11:38:28;8.30;;;4.13;;
14139;SDS011;7150;53.514;9.988;2023-07-31T11:40:58;6.60;;;3.63;;
14139;SDS011;7150;53.514;9.988;2023-07-31T11:43:27;6.00;;;3.50;;
14139;SDS011;7150;53.514;9.988;2023-07-31T11:45:58;4.83;;;3.50;;
14139;SDS011;7150;53.514;9.988;2023-07-31T11:48:25;8.83;;;3.80;;
14139;SDS011;7150;53.514;9.988;2023-07-31T11:50:53;14.30;;;4.70;;
14139;SDS011;7150;53.514;9.988;2023-07-31T11:53:23;6.50;;;3.63;;
14139;SDS011;7150;53.514;9.988;2023-07-31T11:56:09;5.83;;;3.97;;
14139;SDS011;7150;53.514;9.988;2023-07-31T11:58:37;6.53;;;3.63;;
14139;SDS011;7150;53.514;9.988;2023-07-31T12:01:03;6.10;;;3.40;;
14139;SDS011;7150;53.514;9.988;2023-07-31T12:03:30;5.97;;;3.73;;
14139;SDS011;7150;53.514;9.988;2023-07-31T12:05:57;5.70;;;3.53;;
14139;SDS011;7150;53.514;9.988;2023-07-31T12:08:24;6.30;;;3.70;;
14139;SDS011;7150;53.514;9.988;2023-07-31T12:10:50;4.23;;;2.90;;
14139;SDS011;7150;53.514;9.988;2023-07-31T12:13:24;3.70;;;2.87;;
14139;SDS011;7150;53.514;9.988;2023-07-31T12:15:54;4.10;;;2.80;;
14139;SDS011;7150;53.514;9.988;2023-07-31T12:18:22;4.67;;;2.90;;
14139;SDS011;7150;53.514;9.988;2023-07-31T12:20:49;4.03;;;2.43;;
14139;SDS011;7150;53.514;9.988;2023-07-31T12:23:21;2.30;;;2.10;;
14139;SDS011;7150;53.514;9.988;2023-07-31T12:26:02;6.50;;;3.00;;
14139;SDS011;7150;53.514;9.988;2023-07-31T12:28:34;3.40;;;2.13;;
14139;SDS011;7150;53.514;9.988;2023-07-31T12:31:01;3.40;;;2.40;;
14139;SDS011;7150;53.514;9.988;2023-07-31T12:33:31;2.70;;;2.30;;
14139;SDS011;7150;53.514;9.988;2023-07-31T12:35:57;6.30;;;2.60;;
14139;SDS011;7150;53.514;9.988;2023-07-31T12:38:25;3.87;;;2.47;;
14139;SDS011;7150;53.514;9.988;2023-07-31T12:40:51;3.73;;;2.10;;
14139;SDS011;7150;53.514;9.988;2023-07-31T12:43:16;3.47;;;2.30;;
14139;SDS011;7150;53.514;9.988;2023-07-31T12:45:42;4.73;;;2.10;;
14139;SDS011;7150;53.514;9.988;2023-07-31T12:48:07;2.60;;;1.83;;
14139;SDS011;7150;53.514;9.988;2023-07-31T12:50:32;3.00;;;2.10;;
14139;SDS011;7150;53.514;9.988;2023-07-31T12:53:01;2.83;;;2.00;;
14139;SDS011;7150;53.514;9.988;2023-07-31T12:55:28;2.47;;;2.10;;
14139;SDS011;7150;53.514;9.988;2023-07-31T12:57:54;3.30;;;2.27;;
14139;SDS011;7150;53.514;9.988;2023-07-31T13:00:19;2.97;;;1.70;;
14139;SDS011;7150;53.514;9.988;2023-07-31T13:02:44;3.20;;;1.90;;
14139;SDS011;7150;53.514;9.988;2023-07-31T13:05:10;4.77;;;1.97;;
14139;SDS011;7150;53.514;9.988;2023-07-31T13:07:36;3.40;;;1.90;;
14139;SDS011;7150;53.514;9.988;2023-07-31T13:10:01;3.30;;;1.70;;
14139;SDS011;7150;53.514;9.988;2023-07-31T13:12:27;1.83;;;1.50;;
14139;SDS011;7150;53.514;9.988;2023-07-31T13:14:52;4.13;;;1.90;;
14139;SDS011;7150;53.514;9.988;2023-07-31T13:17:18;2.60;;;1.73;;
14139;SDS011;7150;53.514;9.988;2023-07-31T13:19:44;2.67;;;1.47;;
14139;SDS011;7150;53.514;9.988;2023-07-31T13:22:09;2.03;;;1.30;;
14139;SDS011;7150;53.514;9.988;2023-07-31T13:24:35;2.30;;;1.70;;
14139;SDS011;7150;53.514;9.988;2023-07-31T13:27:00;5.20;;;1.87;;
14139;SDS011;7150;53.514;9.988;2023-07-31T13:29:26;3.33;;;2.27;;
14139;SDS011;7150;53.514;9.988;2023-07-31T13:31:52;2.17;;;1.77;;
14139;SDS011;7150;53.514;9.988;2023-07-31T13:34:17;4.30;;;2.00;;
14139;SDS011;7150;53.514;9.988;2023-07-31T13:36:43;1.93;;;1.63;;
14139;SDS011;7150;53.514;9.988;2023-07-31T13:39:08;2.73;;;1.40;;
14139;SDS011;7150;53.514;9.988;2023-07-31T13:41:34;4.50;;;1.30;;
14139;SDS011;7150;53.514;9.988;2023-07-31T13:44:00;1.40;;;1.30;;
14139;SDS011;7150;53.514;9.988;2023-07-31T13:46:25;1.83;;;1.50;;
14139;SDS011;7150;53.514;9.988;2023-07-31T13:48:51;2.77;;;1.50;;
14139;SDS011;7150;53.514;9.988;2023-07-31T13:51:19;2.30;;;1.30;;
14139;SDS011;7150;53.514;9.988;2023-07-31T13:53:45;2.40;;;1.10;;
14139;SDS011;7150;53.514;9.988;2023-07-31T13:56:10;4.30;;;1.60;;
14139;SDS011;7150;53.514;9.988;2023-07-31T13:58:36;1.27;;;1.17;;
14139;SDS011;7150;53.514;9.988;2023-07-31T14:01:01;2.50;;;1.17;;
14139;SDS011;7150;53.514;9.988;2023-07-31T14:03:28;1.30;;;0.90;;
14139;SDS011;7150;53.514;9.988;2023-07-31T14:05:53;1.20;;;0.93;;
14139;SDS011;7150;53.514;9.988;2023-07-31T14:08:20;1.37;;;1.07;;
14139;SDS011;7150;53.514;9.988;2023-07-31T14:10:46;1.27;;;1.00;;
14139;SDS011;7150;53.514;9.988;2023-07-31T14:13:11;0.80;;;0.80;;
14139;SDS011;7150;53.514;9.988;2023-07-31T14:15:37;2.20;;;1.30;;
14139;SDS011;7150;53.514;9.988;2023-07-31T14:18:02;2.60;;;1.10;;
14139;SDS011;7150;53.514;9.988;2023-07-31T14:20:28;2.77;;;1.43;;
14139;SDS011;7150;53.514;9.988;2023-07-31T14:22:54;5.40;;;1.87;;
14139;SDS011;7150;53.514;9.988;2023-07-31T14:25:20;4.53;;;1.57;;
14139;SDS011;7150;53.514;9.988;2023-07-31T14:27:46;2.73;;;1.27;;
14139;SDS011;7150;53.514;9.988;2023-07-31T14:30:11;2.80;;;1.20;;
14139;SDS011;7150;53.514;9.988;2023-07-31T14:32:37;2.13;;;1.80;;
14139;SDS011;7150;53.514;9.988;2023-07-31T14:35:03;5.60;;;1.40;;
14139;SDS011;7150;53.514;9.988;2023-07-31T14:37:36;4.73;;;1.60;;
14139;SDS011;7150;53.514;9.988;2023-07-31T14:40:05;4.23;;;1.70;;
14139;SDS011;7150;53.514;9.988;2023-07-31T14:42:31;5.90;;;1.60;;
14139;SDS011;7150;53.514;9.988;2023-07-31T14:44:56;2.20;;;1.77;;
14139;SDS011;7150;53.514;9.988;2023-07-31T14:47:22;1.63;;;1.50;;
14139;SDS011;7150;53.514;9.988;2023-07-31T14:49:47;2.27;;;1.27;;
14139;SDS011;7150;53.514;9.988;2023-07-31T14:52:13;3.70;;;1.33;;
14139;SDS011;7150;53.514;9.988;2023-07-31T14:54:38;2.23;;;1.20;;
14139;SDS011;7150;53.514;9.988;2023-07-31T14:57:04;2.20;;;1.40;;
14139;SDS011;7150;53.514;9.988;2023-07-31T14:59:29;2.83;;;1.83;;
14139;SDS011;7150;53.514;9.988;2023-07-31T15:01:55;2.00;;;1.70;;
14139;SDS011;7150;53.514;9.988;2023-07-31T15:04:20;3.07;;;1.53;;